Terminal Aerodrome Forecast
Issued by NWS

Home | Current Version | Previous Version | Text Only | Print | Product List | Glossary On
Versions: 1 2 3 4 5 6 7 8 9 10 11 12 13 14 15 16 17 18 19
237
FTUS43 KILX 122227 AAA
TAFDEC
TAF AMD
KDEC 122227Z 1222/1318 30009KT P6SM SCT250
     FM130500 VRB04KT P6SM SCT150
     FM131200 19012KT P6SM SCT200
     FM131500 20016G26KT P6SM BKN200=

USA.gov is the U.S. government's official web portal to all federal, state and local government web resources and services.